sensor_id;sensor_type;location;lat;lon;timestamp;pressure;altitude;pressure_sealevel;temperature;humidity
44825;BME280;30542;47.928;2.138;2023-03-04T00:03:18;101271.78;;;19.46;40.30
44825;BME280;30542;47.928;2.138;2023-03-04T00:08:19;101272.84;;;19.45;40.17
44825;BME280;30542;47.928;2.138;2023-03-04T00:13:19;101276.34;;;19.46;39.94
44825;BME280;30542;47.928;2.138;2023-03-04T00:18:21;101247.44;;;19.31;40.22
44825;BME280;30542;47.928;2.138;2023-03-04T00:23:21;101266.22;;;19.36;39.88
44825;BME280;30542;47.928;2.138;2023-03-04T00:28:22;101270.41;;;19.32;39.82
44825;BME280;30542;47.928;2.138;2023-03-04T00:33:23;101274.75;;;19.33;39.59
44825;BME280;30542;47.928;2.138;2023-03-04T00:38:23;101278.69;;;19.30;39.48
44825;BME280;30542;47.928;2.138;2023-03-04T00:43:23;101281.59;;;19.29;39.50
44825;BME280;30542;47.928;2.138;2023-03-04T00:48:24;101262.56;;;19.13;39.92
44825;BME280;30542;47.928;2.138;2023-03-04T00:53:24;101281.16;;;19.20;39.67
44825;BME280;30542;47.928;2.138;2023-03-04T00:58:25;101277.06;;;19.18;39.69
44825;BME280;30542;47.928;2.138;2023-03-04T01:03:25;101275.13;;;19.13;39.40
44825;BME280;30542;47.928;2.138;2023-03-04T01:08:26;101279.88;;;19.11;39.48
44825;BME280;30542;47.928;2.138;2023-03-04T01:13:26;101273.38;;;19.07;39.85
44825;BME280;30542;47.928;2.138;2023-03-04T01:18:26;101274.88;;;19.03;39.55
44825;BME280;30542;47.928;2.138;2023-03-04T01:23:27;101276.75;;;19.02;39.74
44825;BME280;30542;47.928;2.138;2023-03-04T01:28:27;101280.47;;;19.01;39.60
44825;BME280;30542;47.928;2.138;2023-03-04T01:33:28;101274.53;;;18.99;39.41
44825;BME280;30542;47.928;2.138;2023-03-04T01:38:28;101285.69;;;18.96;39.50
44825;BME280;30542;47.928;2.138;2023-03-04T01:43:29;101274.41;;;18.94;39.61
44825;BME280;30542;47.928;2.138;2023-03-04T01:48:33;101280.25;;;18.91;39.39
44825;BME280;30542;47.928;2.138;2023-03-04T01:53:36;101265.97;;;18.85;39.55
44825;BME280;30542;47.928;2.138;2023-03-04T01:58:36;101264.34;;;18.84;39.59
44825;BME280;30542;47.928;2.138;2023-03-04T02:03:37;101253.06;;;18.82;39.15
44825;BME280;30542;47.928;2.138;2023-03-04T02:08:38;101251.69;;;18.80;39.52
44825;BME280;30542;47.928;2.138;2023-03-04T02:13:38;101247.63;;;18.77;38.95
44825;BME280;30542;47.928;2.138;2023-03-04T02:18:39;101244.97;;;18.77;39.19
44825;BME280;30542;47.928;2.138;2023-03-04T02:24:03;101242.75;;;18.74;39.30
44825;BME280;30542;47.928;2.138;2023-03-04T02:29:06;101244.03;;;18.72;39.17
44825;BME280;30542;47.928;2.138;2023-03-04T02:34:15;101235.44;;;18.70;38.89
44825;BME280;30542;47.928;2.138;2023-03-04T02:44:28;101244.13;;;18.65;38.91
44825;BME280;30542;47.928;2.138;2023-03-04T02:49:30;101233.09;;;18.61;38.93
44825;BME280;30542;47.928;2.138;2023-03-04T02:54:32;101218.94;;;18.49;39.10
44825;BME280;30542;47.928;2.138;2023-03-04T02:59:34;101227.06;;;18.54;39.48
44825;BME280;30542;47.928;2.138;2023-03-04T03:04:54;101222.19;;;18.51;39.23
44825;BME280;30542;47.928;2.138;2023-03-04T03:09:55;101204.22;;;18.35;39.38
44825;BME280;30542;47.928;2.138;2023-03-04T03:14:55;101240.75;;;18.46;39.34
44825;BME280;30542;47.928;2.138;2023-03-04T03:19:55;101229.50;;;18.44;39.07
44825;BME280;30542;47.928;2.138;2023-03-04T03:24:56;101232.28;;;18.37;39.41
44825;BME280;30542;47.928;2.138;2023-03-04T03:29:56;101232.59;;;18.41;39.14
44825;BME280;30542;47.928;2.138;2023-03-04T03:34:57;101215.94;;;18.34;39.20
44825;BME280;30542;47.928;2.138;2023-03-04T03:39:57;101219.75;;;18.38;39.30
44825;BME280;30542;47.928;2.138;2023-03-04T03:44:58;101213.81;;;18.36;39.14
44825;BME280;30542;47.928;2.138;2023-03-04T03:49:58;101229.38;;;18.39;38.84
44825;BME280;30542;47.928;2.138;2023-03-04T03:54:58;101225.44;;;18.42;38.83
44825;BME280;30542;47.928;2.138;2023-03-04T04:00:01;101219.50;;;18.39;39.01
44825;BME280;30542;47.928;2.138;2023-03-04T04:05:02;101229.28;;;18.46;39.17
44825;BME280;30542;47.928;2.138;2023-03-04T04:10:03;101234.94;;;18.49;39.13
44825;BME280;30542;47.928;2.138;2023-03-04T04:15:04;101220.91;;;18.42;39.09
44825;BME280;30542;47.928;2.138;2023-03-04T04:20:06;101225.44;;;18.53;39.19
44825;BME280;30542;47.928;2.138;2023-03-04T04:25:07;101239.13;;;18.57;39.07
44825;BME280;30542;47.928;2.138;2023-03-04T04:30:10;101233.09;;;18.61;39.13
44825;BME280;30542;47.928;2.138;2023-03-04T04:35:10;101231.81;;;18.64;39.34
44825;BME280;30542;47.928;2.138;2023-03-04T04:40:11;101236.25;;;18.70;39.31
44825;BME280;30542;47.928;2.138;2023-03-04T04:45:11;101248.44;;;18.78;39.33
44825;BME280;30542;47.928;2.138;2023-03-04T04:50:12;101249.94;;;18.85;38.95
44825;BME280;30542;47.928;2.138;2023-03-04T04:55:12;101256.31;;;18.96;38.80
44825;BME280;30542;47.928;2.138;2023-03-04T05:00:13;101257.84;;;19.04;38.57
44825;BME280;30542;47.928;2.138;2023-03-04T05:05:13;101255.63;;;19.12;38.55
44825;BME280;30542;47.928;2.138;2023-03-04T05:10:13;101255.25;;;19.21;38.37
44825;BME280;30542;47.928;2.138;2023-03-04T05:15:14;101247.59;;;19.24;38.29
44825;BME280;30542;47.928;2.138;2023-03-04T05:20:15;101258.22;;;19.36;38.26
44825;BME280;30542;47.928;2.138;2023-03-04T05:25:15;101253.47;;;19.38;37.79
44825;BME280;30542;47.928;2.138;2023-03-04T05:30:16;101260.63;;;19.49;37.64
44825;BME280;30542;47.928;2.138;2023-03-04T05:35:16;101267.44;;;19.57;38.02
44825;BME280;30542;47.928;2.138;2023-03-04T05:40:16;101269.66;;;19.60;37.77
44825;BME280;30542;47.928;2.138;2023-03-04T05:45:17;101269.56;;;19.67;37.52
44825;BME280;30542;47.928;2.138;2023-03-04T05:50:18;101271.25;;;19.73;37.54
44825;BME280;30542;47.928;2.138;2023-03-04T05:55:19;101271.34;;;19.78;37.39
44825;BME280;30542;47.928;2.138;2023-03-04T06:00:19;101238.03;;;19.57;37.57
44825;BME280;30542;47.928;2.138;2023-03-04T06:05:20;101273.53;;;19.81;37.20
44825;BME280;30542;47.928;2.138;2023-03-04T06:10:20;101288.16;;;19.90;37.32
44825;BME280;30542;47.928;2.138;2023-03-04T06:15:21;101298.38;;;19.93;37.54
44825;BME280;30542;47.928;2.138;2023-03-04T06:20:21;101292.56;;;19.96;37.27
44825;BME280;30542;47.928;2.138;2023-03-04T06:25:22;101294.97;;;19.98;37.33
44825;BME280;30542;47.928;2.138;2023-03-04T06:30:23;101305.44;;;19.99;37.30
44825;BME280;30542;47.928;2.138;2023-03-04T06:35:23;101318.56;;;20.01;37.52
44825;BME280;30542;47.928;2.138;2023-03-04T06:40:24;101319.97;;;20.03;37.19
44825;BME280;30542;47.928;2.138;2023-03-04T06:45:24;101322.41;;;20.05;37.44
44825;BME280;30542;47.928;2.138;2023-03-04T06:50:24;101328.56;;;20.05;37.42
44825;BME280;30542;47.928;2.138;2023-03-04T06:55:25;101324.59;;;20.08;37.07
44825;BME280;30542;47.928;2.138;2023-03-04T07:00:25;101341.19;;;20.10;36.98
44825;BME280;30542;47.928;2.138;2023-03-04T07:05:26;101350.63;;;20.13;36.84
44825;BME280;30542;47.928;2.138;2023-03-04T07:10:26;101346.88;;;20.14;36.79
44825;BME280;30542;47.928;2.138;2023-03-04T07:15:29;101357.13;;;20.17;36.54
44825;BME280;30542;47.928;2.138;2023-03-04T07:20:29;101364.09;;;20.18;36.63
44825;BME280;30542;47.928;2.138;2023-03-04T07:25:30;101354.19;;;20.18;36.83
44825;BME280;30542;47.928;2.138;2023-03-04T07:30:30;101362.56;;;20.22;36.47
44825;BME280;30542;47.928;2.138;2023-03-04T07:35:31;101368.78;;;20.27;35.92
44825;BME280;30542;47.928;2.138;2023-03-04T07:40:31;101356.34;;;20.33;36.17
44825;BME280;30542;47.928;2.138;2023-03-04T07:45:32;101364.31;;;20.45;36.13
44825;BME280;30542;47.928;2.138;2023-03-04T07:50:32;101373.59;;;20.54;36.07
44825;BME280;30542;47.928;2.138;2023-03-04T07:55:32;101370.53;;;20.62;36.07
44825;BME280;30542;47.928;2.138;2023-03-04T08:00:33;101378.88;;;20.66;35.89
44825;BME280;30542;47.928;2.138;2023-03-04T08:05:33;101381.06;;;20.69;36.13
44825;BME280;30542;47.928;2.138;2023-03-04T08:10:34;101393.50;;;20.75;36.09
44825;BME280;30542;47.928;2.138;2023-03-04T08:15:39;101384.47;;;20.81;36.16
44825;BME280;30542;47.928;2.138;2023-03-04T08:20:41;101396.44;;;20.90;35.74
44825;BME280;30542;47.928;2.138;2023-03-04T08:25:42;101389.50;;;20.94;35.68
44825;BME280;30542;47.928;2.138;2023-03-04T08:30:43;101394.84;;;20.94;35.78
44825;BME280;30542;47.928;2.138;2023-03-04T08:35:43;101384.25;;;20.99;35.81
44825;BME280;30542;47.928;2.138;2023-03-04T08:40:43;101396.66;;;21.05;35.71
44825;BME280;30542;47.928;2.138;2023-03-04T08:45:44;101394.28;;;21.09;35.84
44825;BME280;30542;47.928;2.138;2023-03-04T08:50:45;101383.19;;;21.00;36.08
44825;BME280;30542;47.928;2.138;2023-03-04T08:55:46;101402.19;;;21.16;36.19
44825;BME280;30542;47.928;2.138;2023-03-04T09:00:48;101410.28;;;21.21;35.89
44825;BME280;30542;47.928;2.138;2023-03-04T09:05:50;101413.50;;;21.23;35.68
44825;BME280;30542;47.928;2.138;2023-03-04T09:10:52;101411.75;;;21.28;35.82
44825;BME280;30542;47.928;2.138;2023-03-04T09:15:53;101413.44;;;21.34;35.76
44825;BME280;30542;47.928;2.138;2023-03-04T09:20:54;101401.03;;;21.28;35.68
44825;BME280;30542;47.928;2.138;2023-03-04T09:25:54;101411.69;;;21.40;35.66
44825;BME280;30542;47.928;2.138;2023-03-04T09:30:54;101414.91;;;21.42;35.60
44825;BME280;30542;47.928;2.138;2023-03-04T09:35:55;101419.19;;;21.43;36.83
44825;BME280;30542;47.928;2.138;2023-03-04T09:41:00;101420.44;;;21.52;37.11
44825;BME280;30542;47.928;2.138;2023-03-04T09:46:07;101404.34;;;21.52;36.85
44825;BME280;30542;47.928;2.138;2023-03-04T09:56:59;101419.06;;;21.72;36.82
44825;BME280;30542;47.928;2.138;2023-03-04T10:02:17;101419.44;;;21.80;36.79
44825;BME280;30542;47.928;2.138;2023-03-04T10:07:24;101421.69;;;21.89;36.25
44825;BME280;30542;47.928;2.138;2023-03-04T10:12:28;101416.63;;;21.92;36.28
44825;BME280;30542;47.928;2.138;2023-03-04T10:17:39;101418.31;;;21.98;36.24
44825;BME280;30542;47.928;2.138;2023-03-04T10:22:50;101425.03;;;22.01;36.09
44825;BME280;30542;47.928;2.138;2023-03-04T10:27:57;101411.31;;;21.97;35.81
44825;BME280;30542;47.928;2.138;2023-03-04T10:32:58;101413.56;;;22.05;36.01
44825;BME280;30542;47.928;2.138;2023-03-04T10:38:01;101414.38;;;22.06;35.54
44825;BME280;30542;47.928;2.138;2023-03-04T10:43:02;101411.69;;;22.06;35.81
44825;BME280;30542;47.928;2.138;2023-03-04T10:48:17;101397.22;;;22.07;35.91
44825;BME280;30542;47.928;2.138;2023-03-04T10:53:26;101409.56;;;22.08;36.23
44825;BME280;30542;47.928;2.138;2023-03-04T10:58:28;101405.00;;;22.08;37.28
44825;BME280;30542;47.928;2.138;2023-03-04T11:03:36;101399.09;;;22.06;37.51
44825;BME280;30542;47.928;2.138;2023-03-04T11:08:39;101398.22;;;22.01;36.97
44825;BME280;30542;47.928;2.138;2023-03-04T11:13:50;101395.47;;;21.96;36.99
44825;BME280;30542;47.928;2.138;2023-03-04T11:18:59;101390.88;;;21.91;37.47
44825;BME280;30542;47.928;2.138;2023-03-04T11:24:07;101380.09;;;21.86;37.66
44825;BME280;30542;47.928;2.138;2023-03-04T11:29:21;101370.13;;;21.81;37.63
44825;BME280;30542;47.928;2.138;2023-03-04T11:39:33;101348.03;;;21.74;38.10
44825;BME280;30542;47.928;2.138;2023-03-04T11:44:35;101344.53;;;21.74;38.01
44825;BME280;30542;47.928;2.138;2023-03-04T12:05:54;101306.56;;;21.60;38.89
44825;BME280;30542;47.928;2.138;2023-03-04T12:11:02;101290.06;;;21.46;38.89
44825;BME280;30542;47.928;2.138;2023-03-04T12:26:48;101302.91;;;21.44;39.04
44825;BME280;30542;47.928;2.138;2023-03-04T12:32:13;101297.25;;;21.41;39.15
44825;BME280;30542;47.928;2.138;2023-03-04T12:42:55;101290.75;;;21.37;39.08
44825;BME280;30542;47.928;2.138;2023-03-04T12:48:08;101280.53;;;21.33;39.10
44825;BME280;30542;47.928;2.138;2023-03-04T12:58:34;101254.69;;;21.27;38.73
44825;BME280;30542;47.928;2.138;2023-03-04T13:09:04;101256.31;;;21.28;38.84
44825;BME280;30542;47.928;2.138;2023-03-04T13:24:47;101236.66;;;21.23;39.22
44825;BME280;30542;47.928;2.138;2023-03-04T13:29:50;101236.13;;;21.21;39.17
44825;BME280;30542;47.928;2.138;2023-03-04T13:34:52;101219.41;;;21.14;39.33
44825;BME280;30542;47.928;2.138;2023-03-04T13:45:34;101219.41;;;21.14;39.21
44825;BME280;30542;47.928;2.138;2023-03-04T13:50:40;101226.91;;;21.12;39.30
44825;BME280;30542;47.928;2.138;2023-03-04T13:56:00;101223.66;;;21.09;39.30
44825;BME280;30542;47.928;2.138;2023-03-04T14:01:03;101215.06;;;21.07;39.44
44825;BME280;30542;47.928;2.138;2023-03-04T14:11:38;101203.47;;;21.02;39.18
44825;BME280;30542;47.928;2.138;2023-03-04T14:16:50;101200.25;;;21.00;39.38
44825;BME280;30542;47.928;2.138;2023-03-04T14:21:52;101202.59;;;20.96;39.55
44825;BME280;30542;47.928;2.138;2023-03-04T14:27:09;101202.88;;;20.95;39.56
44825;BME280;30542;47.928;2.138;2023-03-04T14:32:11;101206.34;;;20.95;39.45
44825;BME280;30542;47.928;2.138;2023-03-04T14:37:25;101197.50;;;20.95;39.55
44825;BME280;30542;47.928;2.138;2023-03-04T14:42:36;101192.38;;;20.93;39.49
44825;BME280;30542;47.928;2.138;2023-03-04T14:47:40;101183.75;;;20.86;39.48
44825;BME280;30542;47.928;2.138;2023-03-04T14:52:46;101175.06;;;20.79;39.52
44825;BME280;30542;47.928;2.138;2023-03-04T14:57:53;101188.25;;;20.85;39.64
44825;BME280;30542;47.928;2.138;2023-03-04T15:03:16;101187.97;;;20.82;39.97
44825;BME280;30542;47.928;2.138;2023-03-04T15:08:28;101184.19;;;20.78;39.66
44825;BME280;30542;47.928;2.138;2023-03-04T15:13:46;101187.06;;;20.76;39.81
44825;BME280;30542;47.928;2.138;2023-03-04T15:19:02;101181.41;;;20.73;39.77
44825;BME280;30542;47.928;2.138;2023-03-04T15:24:09;101182.97;;;20.69;39.93
44825;BME280;30542;47.928;2.138;2023-03-04T15:29:18;101171.94;;;20.65;39.84
44825;BME280;30542;47.928;2.138;2023-03-04T15:34:19;101164.41;;;20.62;39.92
44825;BME280;30542;47.928;2.138;2023-03-04T15:39:20;101168.97;;;20.62;39.87
44825;BME280;30542;47.928;2.138;2023-03-04T15:44:22;101175.06;;;20.57;39.90
44825;BME280;30542;47.928;2.138;2023-03-04T15:49:22;101175.22;;;20.50;39.87
44825;BME280;30542;47.928;2.138;2023-03-04T15:54:25;101160.63;;;20.41;39.88
44825;BME280;30542;47.928;2.138;2023-03-04T15:59:27;101183.50;;;20.49;39.87
44825;BME280;30542;47.928;2.138;2023-03-04T16:04:27;101175.13;;;20.45;39.70
44825;BME280;30542;47.928;2.138;2023-03-04T16:09:28;101175.59;;;20.42;39.70
44825;BME280;30542;47.928;2.138;2023-03-04T16:14:28;101179.34;;;20.41;39.93
44825;BME280;30542;47.928;2.138;2023-03-04T16:19:29;101186.25;;;20.37;39.71
44825;BME280;30542;47.928;2.138;2023-03-04T16:24:32;101189.47;;;20.39;39.43
44825;BME280;30542;47.928;2.138;2023-03-04T16:29:33;101186.00;;;20.39;39.39
44825;BME280;30542;47.928;2.138;2023-03-04T16:34:33;101180.88;;;20.37;39.41
44825;BME280;30542;47.928;2.138;2023-03-04T16:39:34;101170.66;;;20.34;39.53
44825;BME280;30542;47.928;2.138;2023-03-04T16:44:35;101178.22;;;20.37;39.60
44825;BME280;30542;47.928;2.138;2023-03-04T16:49:35;101177.63;;;20.35;39.84
44825;BME280;30542;47.928;2.138;2023-03-04T16:54:36;101175.94;;;20.29;39.92
44825;BME280;30542;47.928;2.138;2023-03-04T16:59:36;101185.34;;;20.31;40.06
44825;BME280;30542;47.928;2.138;2023-03-04T17:04:38;101178.63;;;20.29;40.26
44825;BME280;30542;47.928;2.138;2023-03-04T17:09:38;101179.44;;;20.29;40.17
44825;BME280;30542;47.928;2.138;2023-03-04T17:14:39;101176.19;;;20.27;40.29
44825;BME280;30542;47.928;2.138;2023-03-04T17:19:39;101189.06;;;20.30;40.33
44825;BME280;30542;47.928;2.138;2023-03-04T17:24:40;101174.56;;;20.26;40.42
44825;BME280;30542;47.928;2.138;2023-03-04T17:29:40;101181.31;;;20.29;40.33
44825;BME280;30542;47.928;2.138;2023-03-04T17:34:41;101189.34;;;20.29;40.55
44825;BME280;30542;47.928;2.138;2023-03-04T17:39:41;101182.09;;;20.29;40.57
44825;BME280;30542;47.928;2.138;2023-03-04T17:44:41;101189.56;;;20.27;40.55
44825;BME280;30542;47.928;2.138;2023-03-04T17:49:43;101175.38;;;20.27;40.36
44825;BME280;30542;47.928;2.138;2023-03-04T17:54:44;101178.03;;;20.27;40.24
44825;BME280;30542;47.928;2.138;2023-03-04T17:59:45;101159.19;;;20.17;40.21
44825;BME280;30542;47.928;2.138;2023-03-04T18:04:45;101177.25;;;20.26;39.95
44825;BME280;30542;47.928;2.138;2023-03-04T18:09:47;101188.19;;;20.25;39.97
44825;BME280;30542;47.928;2.138;2023-03-04T18:14:48;101187.38;;;20.24;39.50
44825;BME280;30542;47.928;2.138;2023-03-04T18:19:48;101186.59;;;20.24;39.43
44825;BME280;30542;47.928;2.138;2023-03-04T18:24:48;101184.94;;;20.23;39.34
44825;BME280;30542;47.928;2.138;2023-03-04T18:29:49;101183.06;;;20.23;39.36
44825;BME280;30542;47.928;2.138;2023-03-04T18:34:49;101173.22;;;20.24;39.26
44825;BME280;30542;47.928;2.138;2023-03-04T18:39:49;101185.53;;;20.25;39.34
44825;BME280;30542;47.928;2.138;2023-03-04T18:44:50;101187.13;;;20.26;39.46
44825;BME280;30542;47.928;2.138;2023-03-04T18:49:50;101173.75;;;20.26;39.25
44825;BME280;30542;47.928;2.138;2023-03-04T18:54:51;101176.97;;;20.28;39.23
44825;BME280;30542;47.928;2.138;2023-03-04T18:59:56;101185.34;;;20.31;39.53
44825;BME280;30542;47.928;2.138;2023-03-04T19:05:05;101170.94;;;20.32;39.38
44825;BME280;30542;47.928;2.138;2023-03-04T19:10:07;101172.28;;;20.35;39.27
44825;BME280;30542;47.928;2.138;2023-03-04T19:15:08;101177.41;;;20.36;39.53
44825;BME280;30542;47.928;2.138;2023-03-04T19:20:10;101183.78;;;20.35;39.56
44825;BME280;30542;47.928;2.138;2023-03-04T19:25:11;101172.28;;;20.35;39.69
44825;BME280;30542;47.928;2.138;2023-03-04T19:30:11;101166.13;;;20.34;39.58
44825;BME280;30542;47.928;2.138;2023-03-04T19:35:12;101170.66;;;20.34;39.78
44825;BME280;30542;47.928;2.138;2023-03-04T19:40:12;101174.41;;;20.33;39.66
44825;BME280;30542;47.928;2.138;2023-03-04T19:45:13;101163.94;;;20.31;39.62
44825;BME280;30542;47.928;2.138;2023-03-04T19:50:13;101177.09;;;20.33;39.82
44825;BME280;30542;47.928;2.138;2023-03-04T19:55:14;101170.94;;;20.32;39.96
44825;BME280;30542;47.928;2.138;2023-03-04T20:00:15;101170.09;;;20.32;39.81
44825;BME280;30542;47.928;2.138;2023-03-04T20:05:15;101175.44;;;20.32;39.95
44825;BME280;30542;47.928;2.138;2023-03-04T20:10:16;101167.41;;;20.32;39.77
44825;BME280;30542;47.928;2.138;2023-03-04T20:15:17;101167.41;;;20.32;39.85
44825;BME280;30542;47.928;2.138;2023-03-04T20:20:18;101162.06;;;20.32;39.78
44825;BME280;30542;47.928;2.138;2023-03-04T20:25:18;101174.41;;;20.33;39.82
44825;BME280;30542;47.928;2.138;2023-03-04T20:30:19;101163.38;;;20.29;39.91
44825;BME280;30542;47.928;2.138;2023-03-04T20:35:19;101177.09;;;20.33;39.89
44825;BME280;30542;47.928;2.138;2023-03-04T20:40:20;101170.66;;;20.34;39.94
44825;BME280;30542;47.928;2.138;2023-03-04T20:45:20;101180.56;;;20.33;39.75
44825;BME280;30542;47.928;2.138;2023-03-04T20:50:21;101182.44;;;20.33;39.74
44825;BME280;30542;47.928;2.138;2023-03-04T20:55:21;101183.00;;;20.35;39.66
44825;BME280;30542;47.928;2.138;2023-03-04T21:00:23;101186.72;;;20.34;39.85
44825;BME280;30542;47.928;2.138;2023-03-04T21:05:23;101188.59;;;20.33;39.84
44825;BME280;30542;47.928;2.138;2023-03-04T21:10:23;101186.72;;;20.34;39.90
44825;BME280;30542;47.928;2.138;2023-03-04T21:15:24;101185.91;;;20.33;39.85
44825;BME280;30542;47.928;2.138;2023-03-04T21:20:24;101173.81;;;20.31;39.78
44825;BME280;30542;47.928;2.138;2023-03-04T21:25:24;101171.72;;;20.33;39.73
44825;BME280;30542;47.928;2.138;2023-03-04T21:30:25;101182.44;;;20.33;39.81
44825;BME280;30542;47.928;2.138;2023-03-04T21:35:25;101170.94;;;20.32;39.56
44825;BME280;30542;47.928;2.138;2023-03-04T21:40:26;101161.59;;;20.35;39.74
44825;BME280;30542;47.928;2.138;2023-03-04T21:45:26;101154.63;;;20.34;39.55
44825;BME280;30542;47.928;2.138;2023-03-04T21:50:26;101146.84;;;20.32;39.48
44825;BME280;30542;47.928;2.138;2023-03-04T21:55:27;101141.19;;;20.29;39.47
44825;BME280;30542;47.928;2.138;2023-03-04T22:00:27;101148.63;;;20.27;39.56
44825;BME280;30542;47.928;2.138;2023-03-04T22:05:27;101141.09;;;20.24;39.66
44825;BME280;30542;47.928;2.138;2023-03-04T22:10:28;101142.41;;;20.21;39.65
44825;BME280;30542;47.928;2.138;2023-03-04T22:15:28;101128.38;;;20.14;39.69
44825;BME280;30542;47.928;2.138;2023-03-04T22:20:28;101130.25;;;20.14;39.68
44825;BME280;30542;47.928;2.138;2023-03-04T22:25:29;101120.84;;;20.11;39.64
44825;BME280;30542;47.928;2.138;2023-03-04T22:30:31;101108.44;;;20.05;39.61
44825;BME280;30542;47.928;2.138;2023-03-04T22:35:31;101111.13;;;20.05;39.71
44825;BME280;30542;47.928;2.138;2023-03-04T22:40:32;101112.66;;;20.01;39.49
44825;BME280;30542;47.928;2.138;2023-03-04T22:45:32;101112.34;;;19.97;39.36
44825;BME280;30542;47.928;2.138;2023-03-04T22:50:34;101098.31;;;19.90;39.72
44825;BME280;30542;47.928;2.138;2023-03-04T22:55:34;101108.78;;;19.92;39.51
44825;BME280;30542;47.928;2.138;2023-03-04T23:00:35;101098.03;;;19.86;39.78
44825;BME280;30542;47.928;2.138;2023-03-04T23:05:37;101106.53;;;19.83;39.52
44825;BME280;30542;47.928;2.138;2023-03-04T23:10:40;101107.81;;;19.81;39.64
44825;BME280;30542;47.928;2.138;2023-03-04T23:15:40;101101.81;;;19.74;39.95
44825;BME280;30542;47.928;2.138;2023-03-04T23:20:41;101102.63;;;19.74;39.57
44825;BME280;30542;47.928;2.138;2023-03-04T23:25:42;101103.13;;;19.71;39.60
44825;BME280;30542;47.928;2.138;2023-03-04T23:30:45;101096.38;;;19.69;39.94
44825;BME280;30542;47.928;2.138;2023-03-04T23:35:45;101079.03;;;19.54;39.69
44825;BME280;30542;47.928;2.138;2023-03-04T23:40:46;101093.28;;;19.60;39.68
44825;BME280;30542;47.928;2.138;2023-03-04T23:45:46;101086.56;;;19.57;40.04
44825;BME280;30542;47.928;2.138;2023-03-04T23:50:53;101103.06;;;19.54;39.81
44825;BME280;30542;47.928;2.138;2023-03-04T23:55:53;101099.00;;;19.52;39.73
